Time;durP1;ratioP1;P1;durP2;ratioP2;P2;SDS_P1;SDS_P2;PMS_P1;PMS_P2;Temp;Humidity;BMP_temperature;BMP_pressure;BME280_temperature;BME280_humidity;BME280_pressure;Samples;Min_cycle;Max_cycle;Signal;HPM_P1;HPM_P2
2021/10/01 00:00:19;;;;;;;12.07;8.20;;;;;;;5.60;100.00;100479.15;1613613;87;20440;-72
2021/10/01 00:02:47;;;;;;;13.08;8.15;;;;;;;5.61;100.00;100479.20;1614477;87;20967;-72
2021/10/01 00:05:16;;;;;;;11.78;8.15;;;;;;;5.60;100.00;100477.42;1614282;87;20930;-72
2021/10/01 00:07:48;;;;;;;12.15;8.23;;;;;;;5.60;100.00;100485.27;1614599;87;20966;-72
2021/10/01 00:10:18;;;;;;;12.50;8.68;;;;;;;5.57;100.00;100477.31;1614287;87;21426;-72
2021/10/01 00:12:46;;;;;;;12.25;8.48;;;;;;;5.55;100.00;100482.91;1585199;87;20978;-72
2021/10/01 00:15:14;;;;;;;11.18;8.25;;;;;;;5.54;100.00;100475.01;1585045;89;20974;-72
2021/10/01 00:17:44;;;;;;;11.30;8.40;;;;;;;5.52;100.00;100482.80;1613039;89;21518;-72
2021/10/01 00:20:12;;;;;;;15.28;8.43;;;;;;;5.51;100.00;100478.83;1613421;89;20979;-72
2021/10/01 00:22:40;;;;;;;12.82;8.60;;;;;;;5.48;100.00;100486.16;1584235;89;21452;-72
2021/10/01 00:25:10;;;;;;;11.80;8.10;;;;;;;5.45;100.00;100488.66;1613556;88;20907;-72
2021/10/01 00:27:44;;;;;;;12.90;8.60;;;;;;;5.44;100.00;100480.76;1613260;89;21517;-72
2021/10/01 00:30:12;;;;;;;12.98;8.70;;;;;;;5.40;100.00;100477.56;1613429;89;21443;-72
2021/10/01 00:32:40;;;;;;;11.40;8.08;;;;;;;5.37;100.00;100474.00;1613918;87;20938;-72
2021/10/01 00:35:10;;;;;;;15.35;8.03;;;;;;;5.35;100.00;100474.36;1613813;87;21468;-73
2021/10/01 00:37:42;;;;;;;12.35;8.05;;;;;;;5.36;100.00;100473.52;1613190;89;20916;-72
2021/10/01 00:40:12;;;;;;;13.18;8.05;;;;;;;5.37;100.00;100474.41;1613126;89;20904;-72
2021/10/01 00:42:40;;;;;;;15.15;7.92;;;;;;;5.34;100.00;100471.69;1612514;89;21066;-71
2021/10/01 00:45:10;;;;;;;13.88;8.18;;;;;;;5.31;100.00;100480.73;1609678;88;21030;-71
2021/10/01 00:47:39;;;;;;;10.95;7.65;;;;;;;5.28;100.00;100468.44;1609782;88;21155;-72
2021/10/01 00:50:11;;;;;;;13.68;7.92;;;;;;;5.27;100.00;100471.00;1585831;90;21458;-72
2021/10/01 00:52:39;;;;;;;13.80;8.53;;;;;;;5.23;100.00;100469.11;1580213;89;20938;-71
2021/10/01 00:55:08;;;;;;;11.83;8.13;;;;;;;5.18;100.00;100468.02;1584924;89;21038;-71
2021/10/01 00:57:36;;;;;;;12.98;8.00;;;;;;;5.14;100.00;100465.70;1584793;88;21038;-72
2021/10/01 01:00:12;;;;;;;12.20;7.75;;;;;;;5.11;100.00;100466.02;1609877;88;21084;-71
2021/10/01 01:02:41;;;;;;;14.40;8.43;;;;;;;5.09;100.00;100465.07;1584458;89;20967;-71
2021/10/01 01:05:12;;;;;;;9.35;7.70;;;;;;;5.05;100.00;100472.80;1610941;88;21044;-72
2021/10/01 01:07:54;;;;;;;11.75;7.25;;;;;;;5.03;100.00;100471.86;1610323;89;20936;-72
2021/10/01 01:10:44;;;;;;;13.98;7.35;;;;;;;5.03;100.00;100464.42;1611257;88;21470;-71
2021/10/01 01:13:33;;;;;;;14.78;7.55;;;;;;;5.05;100.00;100474.11;1610661;88;20888;-71
2021/10/01 01:16:17;;;;;;;14.33;7.37;;;;;;;5.05;100.00;100467.57;1585138;88;21438;-71
2021/10/01 01:18:48;;;;;;;11.83;7.50;;;;;;;5.03;100.00;100464.02;1567963;89;21030;-72
2021/10/01 01:21:35;;;;;;;10.40;7.50;;;;;;;5.02;100.00;100466.16;1609592;89;21470;-74
2021/10/01 01:24:42;;;;;;;12.15;8.18;;;;;;;5.02;100.00;100462.65;1583609;89;20908;-73
2021/10/01 01:27:48;;;;;;;11.40;7.40;;;;;;;5.00;100.00;100470.44;1584528;89;21055;-72
2021/10/01 01:30:19;;;;;;;12.70;7.87;;;;;;;4.99;100.00;100466.45;1610423;87;21406;-72
2021/10/01 01:32:49;;;;;;;13.65;7.90;;;;;;;4.98;100.00;100464.67;1610430;88;20935;-73
2021/10/01 01:35:25;;;;;;;14.35;8.73;;;;;;;4.97;100.00;100463.78;1581279;90;20957;-73
2021/10/01 01:37:59;;;;;;;12.53;7.92;;;;;;;4.96;100.00;100463.31;1559957;89;21469;-72
2021/10/01 01:40:30;;;;;;;12.18;7.58;;;;;;;4.95;100.00;100458.91;1582304;89;21430;-72
2021/10/01 01:42:59;;;;;;;11.68;7.62;;;;;;;4.95;100.00;100464.56;1547373;88;22204;-72
2021/10/01 01:45:27;;;;;;;11.65;8.15;;;;;;;4.98;100.00;100469.48;1588367;88;21460;-72
2021/10/01 01:47:56;;;;;;;11.35;8.43;;;;;;;4.99;100.00;100466.04;1559852;90;20944;-71
2021/10/01 01:50:24;;;;;;;10.58;8.08;;;;;;;4.99;100.00;100467.34;1587762;88;21415;-71
2021/10/01 01:52:52;;;;;;;11.08;8.53;;;;;;;4.96;100.00;100462.00;1588440;89;21099;-71
2021/10/01 01:55:20;;;;;;;13.93;8.00;;;;;;;4.95;100.00;100461.95;1587097;89;21479;-72
2021/10/01 01:57:50;;;;;;;10.20;7.80;;;;;;;4.93;100.00;100466.23;1583428;90;21006;-73
2021/10/01 02:00:23;;;;;;;12.50;8.38;;;;;;;4.92;100.00;100464.03;1535736;91;20971;-72
2021/10/01 02:02:51;;;;;;;12.15;8.40;;;;;;;4.91;100.00;100467.48;1588382;89;21555;-71
2021/10/01 02:05:20;;;;;;;12.80;7.80;;;;;;;4.90;100.00;100470.93;1589660;89;21054;-71
2021/10/01 02:07:48;;;;;;;11.90;7.72;;;;;;;4.88;100.00;100468.67;1586967;89;21493;-71
2021/10/01 02:10:17;;;;;;;12.25;7.37;;;;;;;4.89;100.00;100475.69;1587981;89;20966;-71
2021/10/01 02:12:47;;;;;;;10.35;7.20;;;;;;;4.92;100.00;100471.88;1587603;90;21005;-70
2021/10/01 02:15:21;;;;;;;11.73;8.23;;;;;;;4.94;100.00;100476.75;1556219;91;21567;-72
2021/10/01 02:17:49;;;;;;;12.30;8.55;;;;;;;4.96;100.00;100479.42;1592952;89;21068;-71
2021/10/01 02:20:21;;;;;;;15.75;8.35;;;;;;;4.96;100.00;100475.50;1588255;88;20969;-70
2021/10/01 02:22:49;;;;;;;11.90;7.85;;;;;;;4.94;100.00;100474.13;1559023;90;21511;-66
2021/10/01 02:28:11;;;;;;;13.20;7.90;;;;;;;4.90;100.00;100475.27;1573654;89;20988;-70
2021/10/01 02:30:42;;;;;;;9.50;7.72;;;;;;;4.89;100.00;100478.72;1590686;88;21119;-72
2021/10/01 02:33:13;;;;;;;11.15;7.90;;;;;;;4.87;100.00;100479.08;1591732;89;21004;-72
2021/10/01 02:35:41;;;;;;;12.55;7.65;;;;;;;4.84;100.00;100468.50;1560488;90;21032;-72
2021/10/01 02:38:11;;;;;;;11.78;7.90;;;;;;;4.83;100.00;100471.53;1560357;90;21475;-70
2021/10/01 02:40:38;;;;;;;11.43;6.92;;;;;;;4.81;100.00;100472.31;1590739;89;20971;-71
2021/10/01 02:43:06;;;;;;;10.68;7.55;;;;;;;4.81;100.00;100473.61;1588211;88;21492;-72
2021/10/01 02:45:35;;;;;;;11.97;8.63;;;;;;;4.87;100.00;100477.35;1588281;88;21390;-71
2021/10/01 02:48:04;;;;;;;21.10;10.30;;;;;;;4.90;100.00;100477.47;1588202;88;20948;-71
2021/10/01 02:50:34;;;;;;;15.35;10.65;;;;;;;4.94;100.00;100475.86;1563607;90;21507;-70
2021/10/01 02:53:13;;;;;;;19.75;11.38;;;;;;;4.95;100.00;100481.56;1560434;89;21045;-70
2021/10/01 02:56:00;;;;;;;15.40;10.90;;;;;;;4.98;100.00;100486.91;1588037;88;21965;-73
2021/10/01 02:58:49;;;;;;;13.15;10.00;;;;;;;5.00;100.00;100476.97;1588100;88;21458;-72
2021/10/01 03:01:20;;;;;;;17.40;10.00;;;;;;;5.09;100.00;100478.14;1587893;89;21086;-73
2021/10/01 03:03:48;;;;;;;17.00;10.60;;;;;;;5.15;100.00;100479.27;1558596;90;21115;-72
2021/10/01 03:06:20;;;;;;;19.15;10.85;;;;;;;5.19;100.00;100477.23;1588583;88;20958;-63
2021/10/01 03:08:52;;;;;;;20.00;10.55;;;;;;;5.22;100.00;100481.30;1588117;88;21133;-72
2021/10/01 03:11:22;;;;;;;13.22;9.85;;;;;;;5.28;100.00;100485.86;1595279;90;20963;-73
2021/10/01 03:13:52;;;;;;;16.97;10.53;;;;;;;5.36;100.00;100478.76;1560022;90;21533;-69
2021/10/01 03:16:21;;;;;;;17.77;10.90;;;;;;;5.43;100.00;100477.67;1568865;90;21601;-68
2021/10/01 03:18:54;;;;;;;17.75;10.72;;;;;;;5.47;100.00;100479.14;1588143;88;21175;-72
2021/10/01 03:21:25;;;;;;;23.40;11.33;;;;;;;5.52;100.00;100484.53;1588552;88;20989;-73
2021/10/01 03:23:54;;;;;;;15.53;10.08;;;;;;;5.57;100.00;100477.73;1588293;88;21089;-71
2021/10/01 03:26:24;;;;;;;12.47;9.75;;;;;;;5.63;100.00;100481.45;1560842;88;21061;-72
2021/10/01 03:28:52;;;;;;;14.75;10.93;;;;;;;5.72;100.00;100490.08;1560131;90;21625;-70
2021/10/01 03:31:22;;;;;;;17.98;10.32;;;;;;;5.78;100.00;100497.25;1588473;88;20983;-70
2021/10/01 03:33:49;;;;;;;27.37;10.53;;;;;;;5.80;100.00;100489.03;1595517;89;21132;-71
2021/10/01 03:36:17;;;;;;;23.18;10.43;;;;;;;5.80;100.00;100488.61;1587706;88;20995;-67
2021/10/01 03:38:47;;;;;;;13.38;9.70;;;;;;;5.81;100.00;100490.39;1558898;90;20920;-69
2021/10/01 03:41:17;;;;;;;12.43;9.73;;;;;;;5.83;100.00;100490.02;1588624;89;20976;-70
2021/10/01 03:43:47;;;;;;;20.12;10.50;;;;;;;5.88;100.00;100488.87;1560177;90;20924;-71
2021/10/01 03:46:18;;;;;;;23.25;10.40;;;;;;;5.90;100.00;100495.97;1537320;92;21950;-66
2021/10/01 03:48:46;;;;;;;16.93;10.43;;;;;;;5.90;100.00;100497.70;1578700;91;21444;-71
2021/10/01 03:51:17;;;;;;;16.73;9.68;;;;;;;5.88;100.00;100498.03;1579557;89;20972;-70
2021/10/01 03:53:53;;;;;;;15.65;9.78;;;;;;;5.85;100.00;100494.89;1579391;91;20920;-75
2021/10/01 03:56:23;;;;;;;19.30;10.60;;;;;;;5.86;100.00;100495.78;1579391;90;21518;-74
2021/10/01 03:58:52;;;;;;;20.43;9.65;;;;;;;5.89;100.00;100503.74;1578760;90;21927;-74
2021/10/01 04:01:23;;;;;;;30.95;9.98;;;;;;;5.88;100.00;100500.66;1584286;90;21510;-74
2021/10/01 04:03:51;;;;;;;21.65;10.32;;;;;;;5.85;100.00;100500.55;1584845;89;21453;-74
2021/10/01 04:06:27;;;;;;;27.30;10.40;;;;;;;5.83;100.00;100505.73;1585476;89;21528;-74
2021/10/01 04:09:02;;;;;;;13.80;9.60;;;;;;;5.79;100.00;100506.47;1584713;90;21083;-74
2021/10/01 04:11:30;;;;;;;12.82;9.68;;;;;;;5.78;100.00;100505.11;1585474;89;21932;-74
2021/10/01 04:14:01;;;;;;;15.78;10.38;;;;;;;5.79;100.00;100510.81;1585170;90;21055;-74
2021/10/01 04:16:31;;;;;;;19.95;10.38;;;;;;;5.77;100.00;100512.07;1585548;89;21406;-74
2021/10/01 04:18:58;;;;;;;28.98;10.32;;;;;;;5.74;100.00;100509.77;1585191;90;20988;-74
2021/10/01 04:21:27;;;;;;;23.05;10.78;;;;;;;5.69;100.00;100518.34;1585475;90;21508;-74
2021/10/01 04:23:55;;;;;;;13.30;9.60;;;;;;;5.66;100.00;100522.55;1585194;90;21132;-74
2021/10/01 04:26:32;;;;;;;15.53;9.45;;;;;;;5.65;100.00;100525.59;1584799;90;21563;-74
2021/10/01 04:29:06;;;;;;;14.73;9.35;;;;;;;5.66;100.00;100526.06;1585193;89;21012;-74
2021/10/01 04:31:32;;;;;;;13.10;9.58;;;;;;;5.64;100.00;100527.73;1585340;89;21527;-74
2021/10/01 04:33:59;;;;;;;17.45;9.60;;;;;;;5.61;100.00;100526.73;1585238;89;21024;-74
2021/10/01 04:36:27;;;;;;;17.42;9.98;;;;;;;5.59;100.00;100525.79;1560763;90;21136;-74
2021/10/01 04:38:55;;;;;;;12.07;9.50;;;;;;;5.56;100.00;100531.81;1585509;90;21444;-74
2021/10/01 04:41:24;;;;;;;14.95;10.18;;;;;;;5.55;100.00;100535.27;1584573;90;21472;-74
2021/10/01 04:43:53;;;;;;;13.32;10.58;;;;;;;5.57;100.00;100530.08;1585797;89;21452;-74
2021/10/01 04:46:41;;;;;;;14.07;10.20;;;;;;;5.58;100.00;100530.14;1588026;88;21516;-74
2021/10/01 04:49:09;;;;;;;14.10;9.78;;;;;;;5.57;100.00;100531.39;1588580;88;21104;-74
2021/10/01 04:51:38;;;;;;;17.27;9.73;;;;;;;5.57;100.00;100531.39;1588425;88;20890;-74
2021/10/01 04:54:08;;;;;;;13.83;9.68;;;;;;;5.56;100.00;100534.42;1588664;88;20989;-74
2021/10/01 04:56:37;;;;;;;12.78;9.88;;;;;;;5.57;100.00;100532.28;1588555;88;20986;-74
2021/10/01 04:59:09;;;;;;;13.25;9.43;;;;;;;5.59;100.00;100534.53;1588619;88;20985;-74
2021/10/01 05:01:59;;;;;;;13.10;9.38;;;;;;;5.65;100.00;100527.31;1588534;88;21092;-74
2021/10/01 05:04:38;;;;;;;12.28;9.48;;;;;;;5.69;100.00;100532.75;1586681;88;21049;-74
2021/10/01 05:07:12;;;;;;;13.65;9.95;;;;;;;5.72;100.00;100531.08;1587833;88;21481;-74
2021/10/01 05:09:58;;;;;;;13.80;10.65;;;;;;;5.74;100.00;100532.02;1588536;88;20945;-74
2021/10/01 05:12:45;;;;;;;17.27;10.53;;;;;;;5.77;100.00;100534.74;1588460;88;20973;-74
2021/10/01 05:15:23;;;;;;;22.27;13.43;;;;;;;5.82;100.00;100532.75;1538807;92;21537;-74
2021/10/01 05:18:13;;;;;;;24.60;15.15;;;;;;;5.89;100.00;100533.47;1588394;88;20929;-74
2021/10/01 05:20:51;;;;;;;27.07;15.23;;;;;;;5.96;100.00;100535.88;1588939;88;21453;-74
2021/10/01 05:23:25;;;;;;;21.65;14.80;;;;;;;6.02;100.00;100548.30;1575975;88;20941;-74
2021/10/01 05:25:54;;;;;;;21.73;14.70;;;;;;;6.06;100.00;100545.84;1588632;88;20917;-74
2021/10/01 05:28:22;;;;;;;23.90;14.58;;;;;;;6.11;100.00;100544.27;1588375;88;21133;-74
2021/10/01 05:30:51;;;;;;;20.97;13.38;;;;;;;6.18;100.00;100554.14;1588608;88;20973;-74
2021/10/01 05:33:20;;;;;;;24.82;13.62;;;;;;;6.27;100.00;100545.28;1588447;88;21034;-74
2021/10/01 05:35:50;;;;;;;20.92;13.45;;;;;;;6.37;100.00;100546.47;1588466;88;21005;-74
2021/10/01 05:38:18;;;;;;;24.67;14.03;;;;;;;6.43;100.00;100545.78;1588378;88;20913;-74
2021/10/01 05:40:50;;;;;;;25.20;14.07;;;;;;;6.50;100.00;100559.13;1588352;88;21904;-74
2021/10/01 05:43:17;;;;;;;23.42;14.00;;;;;;;6.55;100.00;100548.38;1588343;88;20954;-74
2021/10/01 05:45:47;;;;;;;22.65;13.60;;;;;;;6.62;100.00;100553.39;1593089;88;21479;-75
2021/10/01 05:48:40;;;;;;;18.70;11.43;;;;;;;6.68;100.00;100554.05;1595676;88;21463;-74
2021/10/01 05:51:28;;;;;;;15.48;11.00;;;;;;;6.78;100.00;100554.38;1594983;88;21460;-74
2021/10/01 05:54:21;;;;;;;16.62;10.88;;;;;;;6.90;100.00;100556.07;1595895;88;21112;-74
2021/10/01 05:57:04;;;;;;;16.40;11.18;;;;;;;7.01;100.00;100561.64;1595476;88;21947;-74
2021/10/01 05:59:43;;;;;;;17.27;10.53;;;;;;;7.10;100.00;100556.70;1595008;88;20945;-74
2021/10/01 06:02:14;;;;;;;14.80;9.60;;;;;;;7.17;100.00;100561.30;1595690;88;20953;-74
2021/10/01 06:04:42;;;;;;;17.23;10.18;;;;;;;7.23;100.00;100561.90;1595876;88;20976;-74
2021/10/01 06:07:12;;;;;;;13.45;9.90;;;;;;;7.29;100.00;100564.70;1595637;88;20881;-74
2021/10/01 06:09:43;;;;;;;13.53;9.93;;;;;;;7.35;100.00;100560.05;1595542;88;21036;-74
2021/10/01 06:12:12;;;;;;;12.53;9.43;;;;;;;7.43;100.00;100556.80;1595645;88;20984;-74
2021/10/01 06:14:40;;;;;;;12.43;8.63;;;;;;;7.52;100.00;100556.17;1595621;88;21016;-74
2021/10/01 06:17:09;;;;;;;19.95;8.50;;;;;;;7.62;100.00;100562.19;1595603;88;21571;-74
2021/10/01 06:19:39;;;;;;;14.60;8.33;;;;;;;7.70;100.00;100559.77;1595592;88;21136;-74
2021/10/01 06:22:07;;;;;;;12.23;8.33;;;;;;;7.79;100.00;100562.66;1595640;88;20902;-74
2021/10/01 06:24:36;;;;;;;13.40;8.30;;;;;;;7.87;100.00;100555.87;1595836;88;21516;-74
2021/10/01 06:27:04;;;;;;;16.65;8.25;;;;;;;7.96;100.00;100554.80;1595589;88;20945;-74
2021/10/01 06:29:31;;;;;;;12.13;7.78;;;;;;;8.08;100.00;100559.09;1595833;88;20985;-75
2021/10/01 06:32:02;;;;;;;12.00;7.28;;;;;;;8.17;100.00;100558.45;1595606;88;21460;-74
2021/10/01 06:34:33;;;;;;;12.03;8.65;;;;;;;8.27;100.00;100556.52;1595784;88;20941;-74
2021/10/01 06:37:01;;;;;;;9.70;7.10;;;;;;;8.34;100.00;100558.48;1595623;88;20936;-74
2021/10/01 06:39:28;;;;;;;12.07;7.72;;;;;;;8.43;100.00;100559.14;1595824;88;21538;-74
2021/10/01 06:41:56;;;;;;;15.88;8.78;;;;;;;8.51;100.00;100561.53;1595714;88;21083;-74
2021/10/01 06:44:30;;;;;;;15.30;8.68;;;;;;;8.57;100.00;100557.77;1595144;88;21488;-74
2021/10/01 06:47:02;;;;;;;15.80;9.08;;;;;;;8.67;100.00;100562.39;1588131;88;21517;-74
2021/10/01 07:45:29;;;;;;;26.02;10.13;;;;;;;11.41;100.00;100567.23;1588311;88;20913;-73
2021/10/01 08:20:15;;;;;;;21.97;7.03;;;;;;;13.48;100.00;100517.11;1600581;88;21479;-72
2021/10/01 08:22:45;;;;;;;17.12;7.08;;;;;;;13.69;100.00;100525.58;1600685;88;21487;-72
2021/10/01 08:25:13;;;;;;;13.58;6.97;;;;;;;13.80;99.64;100529.18;1600560;88;20937;-73
2021/10/01 08:27:42;;;;;;;17.27;7.30;;;;;;;13.92;96.63;100528.77;1600814;88;20984;-73
2021/10/01 08:30:11;;;;;;;13.98;6.70;;;;;;;14.05;93.27;100533.21;1600547;88;21411;-72
2021/10/01 08:32:41;;;;;;;18.15;6.10;;;;;;;14.19;90.33;100531.49;1600812;88;21125;-73
2021/10/01 08:35:12;;;;;;;10.80;5.47;;;;;;;14.28;85.96;100532.83;1600511;88;20932;-73
2021/10/01 08:37:43;;;;;;;9.88;5.67;;;;;;;14.38;81.50;100533.72;1600571;88;20932;-73
2021/10/01 08:40:11;;;;;;;13.13;5.80;;;;;;;14.45;76.06;100532.87;1600776;88;20948;-73
2021/10/01 08:42:46;;;;;;;11.03;6.22;;;;;;;14.52;73.70;100534.64;1600728;88;21456;-74
2021/10/01 08:45:15;;;;;;;13.32;5.53;;;;;;;14.65;72.30;100525.78;1599730;88;21133;-75
2021/10/01 08:47:44;;;;;;;14.25;5.97;;;;;;;14.83;72.84;100527.56;1595701;88;20904;-73
2021/10/01 08:50:16;;;;;;;12.63;5.35;;;;;;;14.99;69.69;100522.66;1595854;88;20954;-74
2021/10/01 08:52:47;;;;;;;12.78;5.45;;;;;;;15.12;68.72;100511.55;1595770;88;21440;-74
2021/10/01 08:55:15;;;;;;;12.93;5.08;;;;;;;15.30;67.50;100510.63;1596028;88;21036;-74
2021/10/01 08:57:42;;;;;;;9.35;5.72;;;;;;;15.48;65.37;100505.69;1595725;88;21116;-74
2021/10/01 09:00:16;;;;;;;11.65;5.05;;;;;;;15.60;64.31;100510.53;1569473;90;20988;-74
2021/10/01 09:02:43;;;;;;;10.80;4.93;;;;;;;15.78;63.48;100512.24;1595947;88;20917;-74
2021/10/01 09:05:11;;;;;;;10.20;4.62;;;;;;;15.93;61.22;100513.92;1569252;88;21464;-74
2021/10/01 09:07:39;;;;;;;6.30;4.03;;;;;;;15.97;56.24;100513.02;1595667;88;20952;-73
2021/10/01 09:10:12;;;;;;;9.40;4.50;;;;;;;15.98;54.65;100501.47;1595852;88;20921;-74
2021/10/01 09:12:39;;;;;;;7.58;4.40;;;;;;;15.96;53.13;100500.16;1595601;88;21500;-74
2021/10/01 09:15:09;;;;;;;9.18;4.28;;;;;;;15.95;51.65;100506.81;1595872;88;20992;-74
2021/10/01 09:17:39;;;;;;;6.92;4.30;;;;;;;16.02;51.35;100500.56;1569281;88;20897;-75
2021/10/01 09:20:10;;;;;;;8.65;4.47;;;;;;;16.30;51.21;100491.95;1595825;88;21464;-74
2021/10/01 09:22:42;;;;;;;8.08;4.62;;;;;;;16.38;49.96;100494.98;1549575;88;21441;-74
2021/10/01 09:25:17;;;;;;;9.80;4.12;;;;;;;16.38;49.96;100494.98;1595841;88;21471;-74
2021/10/01 09:27:47;;;;;;;10.00;4.37;;;;;;;16.42;49.53;100491.84;1568956;88;20941;-74
2021/10/01 09:30:18;;;;;;;8.05;4.03;;;;;;;16.50;48.64;100500.66;1595810;88;20989;-73
2021/10/01 09:33:08;;;;;;;7.15;3.77;;;;;;;16.49;47.77;100490.01;1595694;88;20941;-73
2021/10/01 09:35:37;;;;;;;9.73;3.50;;;;;;;16.45;46.98;100489.16;1595876;88;21918;-74
2021/10/01 09:38:20;;;;;;;6.55;3.60;;;;;;;16.48;46.52;100493.12;1595585;88;21480;-74
2021/10/01 09:41:17;;;;;;;7.22;3.70;;;;;;;16.48;46.52;100493.12;1595884;88;20901;-74
2021/10/01 09:43:45;;;;;;;6.60;4.00;;;;;;;16.51;46.32;100495.76;1595612;88;21479;-74
2021/10/01 09:46:13;;;;;;;6.35;3.65;;;;;;;16.58;45.87;100488.63;1589818;88;20957;-74
2021/10/01 09:48:41;;;;;;;7.25;3.95;;;;;;;16.63;45.43;100494.80;1582002;89;21134;-74
2021/10/01 09:51:16;;;;;;;8.23;3.67;;;;;;;16.62;45.07;100477.05;1582157;89;21456;-74
2021/10/01 09:53:50;;;;;;;5.87;3.87;;;;;;;16.72;45.00;100476.09;1582016;89;20970;-74
2021/10/01 09:56:32;;;;;;;5.97;3.75;;;;;;;16.88;45.10;100480.36;1582307;89;21461;-74
2021/10/01 09:59:15;;;;;;;9.63;4.12;;;;;;;17.04;44.80;100477.11;1582035;89;20975;-74
2021/10/01 10:02:04;;;;;;;9.85;3.72;;;;;;;17.09;44.08;100478.39;1582232;89;21109;-73
2021/10/01 10:04:42;;;;;;;6.50;3.72;;;;;;;17.15;43.93;100468.53;1558133;89;21084;-74
2021/10/01 10:07:20;;;;;;;8.93;3.55;;;;;;;17.28;43.77;100468.81;1581782;89;20906;-74
2021/10/01 10:09:55;;;;;;;5.28;3.33;;;;;;;17.44;43.51;100469.95;1581951;89;20990;-73
2021/10/01 10:12:36;;;;;;;8.18;3.17;;;;;;;17.55;42.88;100472.94;1582012;89;20993;-74
2021/10/01 10:15:07;;;;;;;5.90;3.98;;;;;;;17.62;42.65;100467.06;1582041;89;21068;-74
2021/10/01 10:17:37;;;;;;;10.05;3.75;;;;;;;17.67;41.33;100464.36;1580546;89;20993;-74
2021/10/01 10:20:07;;;;;;;5.83;3.55;;;;;;;17.60;41.08;100464.87;1519911;89;20997;-74
2021/10/01 10:22:38;;;;;;;5.58;3.17;;;;;;;17.56;40.64;100463.15;1581858;89;20945;-74
2021/10/01 10:25:08;;;;;;;5.30;3.20;;;;;;;17.55;40.56;100468.94;1582010;89;21065;-74
2021/10/01 10:27:36;;;;;;;7.20;3.70;;;;;;;17.56;40.32;100466.70;1581980;89;21115;-74
2021/10/01 10:30:07;;;;;;;8.63;3.60;;;;;;;17.59;39.81;100459.98;1580966;89;20949;-74
2021/10/01 10:32:35;;;;;;;7.87;3.60;;;;;;;17.57;39.64;100455.13;1582230;89;21212;-75
2021/10/01 10:35:07;;;;;;;5.30;3.70;;;;;;;17.69;39.94;100459.89;1581937;89;20949;-75
2021/10/01 10:37:45;;;;;;;7.00;3.25;;;;;;;17.88;40.31;100454.25;1582211;89;21052;-74
2021/10/01 10:40:17;;;;;;;5.00;3.35;;;;;;;18.11;40.03;100451.70;1558139;89;21137;-74
2021/10/01 10:42:51;;;;;;;4.53;3.00;;;;;;;18.33;39.80;100445.55;1582192;89;20941;-74
2021/10/01 10:45:23;;;;;;;10.38;4.20;;;;;;;18.50;39.26;100448.84;1582182;89;20985;-74
2021/10/01 10:47:58;;;;;;;7.45;3.25;;;;;;;18.53;38.21;100442.98;1587010;88;20945;-74
2021/10/01 10:50:33;;;;;;;8.43;3.70;;;;;;;18.52;38.16;100445.69;1588538;88;21556;-74
2021/10/01 10:53:12;;;;;;;5.85;3.40;;;;;;;18.43;37.50;100433.80;1588337;88;21091;-74
2021/10/01 10:55:59;;;;;;;18.92;3.62;;;;;;;18.47;37.80;100432.87;1588493;88;20984;-74
2021/10/01 10:58:36;;;;;;;11.10;3.02;;;;;;;18.63;38.05;100428.16;1588095;88;20997;-65
2021/10/01 11:01:21;;;;;;;4.30;3.00;;;;;;;18.84;38.16;100439.77;1588563;88;20913;-67
2021/10/01 11:03:54;;;;;;;13.55;3.37;;;;;;;18.89;37.72;100429.87;1588344;88;20978;-64
2021/10/01 11:06:22;;;;;;;20.45;4.05;;;;;;;18.91;37.32;100426.71;1588600;88;21735;-64
2021/10/01 11:09:12;;;;;;;10.93;4.00;;;;;;;18.89;36.76;100425.86;1588236;88;21540;-65
2021/10/01 11:11:42;;;;;;;7.25;3.40;;;;;;;18.78;36.58;100410.48;1588508;88;21009;-64
2021/10/01 11:14:25;;;;;;;8.90;4.10;;;;;;;18.74;36.45;100420.81;1588301;88;21062;-64
2021/10/01 11:17:01;;;;;;;11.93;4.30;;;;;;;18.64;36.30;100417.44;1588249;88;21501;-66
2021/10/01 11:19:40;;;;;;;9.40;3.75;;;;;;;18.58;36.54;100423.31;1588363;88;21130;-64
2021/10/01 11:22:36;;;;;;;11.80;3.60;;;;;;;18.56;37.04;100412.20;1587758;88;20917;-64
2021/10/01 11:25:17;;;;;;;7.95;3.72;;;;;;;18.73;37.16;100408.36;1588056;88;21528;-68
2021/10/01 11:27:53;;;;;;;5.53;3.75;;;;;;;18.86;37.32;100404.08;1588857;88;20966;-67
2021/10/01 11:30:22;;;;;;;5.45;3.75;;;;;;;18.99;37.56;100400.73;1588281;88;21013;-68
2021/10/01 11:32:50;;;;;;;8.38;3.90;;;;;;;19.22;37.75;100400.70;1588538;88;21110;-67
2021/10/01 11:35:17;;;;;;;8.98;3.65;;;;;;;19.40;38.00;100400.33;1588287;88;21424;-65
2021/10/01 11:37:48;;;;;;;7.22;3.62;;;;;;;19.61;37.86;100396.31;1588481;88;20982;-68
2021/10/01 11:40:29;;;;;;;6.47;3.25;;;;;;;19.81;37.53;100396.72;1588465;88;21018;-68
2021/10/01 11:43:00;;;;;;;7.83;3.37;;;;;;;19.95;36.90;100395.08;1588324;88;20914;-68
2021/10/01 11:45:35;;;;;;;39.55;5.00;;;;;;;20.06;36.44;100395.69;1588446;88;21094;-64
2021/10/01 11:48:09;;;;;;;7.78;3.80;;;;;;;19.98;35.74;100398.56;1584778;89;20898;-67
2021/10/01 11:50:47;;;;;;;6.83;3.80;;;;;;;19.93;35.55;100387.54;1581921;89;20938;-67
2021/10/01 11:53:24;;;;;;;7.55;3.90;;;;;;;20.05;35.78;100389.45;1582209;89;21037;-68
2021/10/01 11:55:59;;;;;;;5.55;3.95;;;;;;;20.23;36.05;100388.10;1582188;89;20953;-68
2021/10/01 11:58:27;;;;;;;10.88;3.90;;;;;;;20.38;36.05;100381.03;1581954;89;21969;-67
2021/10/01 12:00:55;;;;;;;9.28;3.58;;;;;;;20.50;35.74;100373.16;1582146;89;21457;-67
2021/10/01 12:03:25;;;;;;;4.85;3.45;;;;;;;20.62;35.61;100370.59;1581987;89;21535;-67
2021/10/01 12:05:55;;;;;;;7.83;3.50;;;;;;;20.74;35.54;100376.48;1582128;89;20989;-67
2021/10/01 12:08:25;;;;;;;7.33;3.15;;;;;;;20.83;35.06;100369.14;1581981;89;20997;-67
2021/10/01 12:10:57;;;;;;;6.33;3.10;;;;;;;20.87;34.60;100370.34;1582087;89;21118;-67
2021/10/01 12:13:27;;;;;;;4.47;3.02;;;;;;;20.90;34.33;100367.58;1581865;89;21474;-67
2021/10/01 12:16:03;;;;;;;6.47;2.72;;;;;;;20.90;33.57;100372.94;1582164;89;20982;-67
2021/10/01 12:19:05;;;;;;;7.80;3.42;;;;;;;20.76;33.14;100363.04;1581899;89;21002;-67
2021/10/01 12:21:30;;;;;;;8.70;3.30;;;;;;;20.67;32.83;100365.98;1581914;89;21509;-67
2021/10/01 12:24:14;;;;;;;7.45;3.30;;;;;;;20.36;32.61;100365.91;1581926;89;21130;-67
2021/10/01 12:26:46;;;;;;;5.25;3.02;;;;;;;20.32;32.98;100360.19;1582107;89;20995;-67
2021/10/01 12:29:17;;;;;;;8.90;3.58;;;;;;;20.36;32.97;100358.75;1581893;89;20929;-67
2021/10/01 12:31:55;;;;;;;4.70;2.52;;;;;;;20.42;33.01;100357.28;1581897;89;21583;-66
2021/10/01 12:34:30;;;;;;;9.28;3.45;;;;;;;20.48;32.56;100356.23;1582165;89;20989;-67
2021/10/01 12:37:04;;;;;;;8.45;3.10;;;;;;;20.40;32.14;100347.52;1582136;89;21465;-67
2021/10/01 12:39:35;;;;;;;17.23;4.00;;;;;;;20.27;32.27;100350.93;1557058;89;21001;-67
2021/10/01 12:42:14;;;;;;;65.32;6.05;;;;;;;20.27;32.40;100344.23;1581666;89;21472;-67
2021/10/01 12:44:42;;;;;;;19.23;4.30;;;;;;;20.20;32.38;100352.02;1581742;89;20926;-67
2021/10/01 12:47:19;;;;;;;5.37;3.58;;;;;;;20.04;32.44;100345.30;1582537;89;20989;-67
2021/10/01 12:50:08;;;;;;;14.33;3.72;;;;;;;20.10;32.63;100346.48;1588266;88;21119;-67
2021/10/01 12:52:57;;;;;;;14.95;3.72;;;;;;;20.21;32.84;100336.36;1588394;88;21013;-67
2021/10/01 12:55:25;;;;;;;10.10;3.52;;;;;;;20.37;33.10;100331.49;1588339;88;21005;-66
2021/10/01 12:57:57;;;;;;;9.83;3.40;;;;;;;20.52;33.23;100335.59;1588656;88;21405;-66
2021/10/01 13:00:32;;;;;;;5.83;3.05;;;;;;;20.58;32.89;100332.73;1588379;88;20996;-66
2021/10/01 13:03:07;;;;;;;7.35;3.20;;;;;;;20.61;32.83;100333.98;1588770;88;21170;-67
2021/10/01 13:05:39;;;;;;;7.30;3.50;;;;;;;20.68;32.74;100328.41;1588428;88;20949;-66
2021/10/01 13:08:15;;;;;;;10.00;3.45;;;;;;;20.69;32.71;100330.16;1588711;88;21464;-67
2021/10/01 13:10:55;;;;;;;9.58;3.27;;;;;;;20.74;32.73;100330.91;1588443;88;20997;-67
2021/10/01 13:13:33;;;;;;;8.33;3.27;;;;;;;20.79;32.50;100337.94;1588630;88;21527;-67